Milwaukee, Wisconsin
Traffic Map
Current Weather Conditions
Milwaukee, Wisconsin
Overcast
Overcast
-2°
Feels Like: -7°
Wind Chill: -7° Ceiling: 1700
Heat Index: -2° Visibility: 10mi
Dew Point: -7° Wind: 8mph
Humidity: 72% Direction: 80° (E)
Pressure: 30.05in Gusts: 0mph
Raw Report DataKMKE 271152Z 08007KT 10SM OVC017 M02/M07 A3005 RMK AO2 SLP186 4/001 60000 70005 T10221067 11022 21033 51025
Traffic Incident Summary
Active as of:
Severity:
Category:
InformationThere was an issue retrieving the traffic information for this location. Please try a different location or try again shortly.
Advertisements
Track Severe Weather on mobile